sensor_id;sensor_type;location;lat;lon;timestamp;P1;durP1;ratioP1;P2;durP2;ratioP2
22650;SDS011;11492;42.646;23.400;2023-12-29T00:01:57;18.83;;;9.05;;
22650;SDS011;11492;42.646;23.400;2023-12-29T00:04:24;21.17;;;9.55;;
22650;SDS011;11492;42.646;23.400;2023-12-29T00:06:52;18.80;;;8.88;;
22650;SDS011;11492;42.646;23.400;2023-12-29T00:09:18;24.08;;;10.18;;
22650;SDS011;11492;42.646;23.400;2023-12-29T00:11:48;21.83;;;10.43;;
22650;SDS011;11492;42.646;23.400;2023-12-29T00:14:15;19.80;;;8.85;;
22650;SDS011;11492;42.646;23.400;2023-12-29T00:16:41;16.17;;;9.02;;
22650;SDS011;11492;42.646;23.400;2023-12-29T00:19:09;20.73;;;9.30;;
22650;SDS011;11492;42.646;23.400;2023-12-29T00:21:36;19.30;;;8.95;;
22650;SDS011;11492;42.646;23.400;2023-12-29T00:24:02;24.65;;;8.88;;
22650;SDS011;11492;42.646;23.400;2023-12-29T00:26:29;19.70;;;8.88;;
22650;SDS011;11492;42.646;23.400;2023-12-29T00:28:55;19.90;;;8.27;;
22650;SDS011;11492;42.646;23.400;2023-12-29T00:31:21;21.25;;;9.02;;
22650;SDS011;11492;42.646;23.400;2023-12-29T00:33:46;20.33;;;8.95;;
22650;SDS011;11492;42.646;23.400;2023-12-29T00:36:16;18.98;;;9.05;;
22650;SDS011;11492;42.646;23.400;2023-12-29T00:38:42;20.88;;;9.15;;
22650;SDS011;11492;42.646;23.400;2023-12-29T00:41:08;20.08;;;10.05;;
22650;SDS011;11492;42.646;23.400;2023-12-29T00:43:34;27.00;;;12.55;;
22650;SDS011;11492;42.646;23.400;2023-12-29T00:46:01;31.95;;;13.75;;
22650;SDS011;11492;42.646;23.400;2023-12-29T00:48:27;31.55;;;14.45;;
22650;SDS011;11492;42.646;23.400;2023-12-29T00:50:52;49.97;;;21.13;;
22650;SDS011;11492;42.646;23.400;2023-12-29T00:53:18;50.45;;;20.38;;
22650;SDS011;11492;42.646;23.400;2023-12-29T00:55:44;39.03;;;19.00;;
22650;SDS011;11492;42.646;23.400;2023-12-29T00:58:10;41.65;;;20.95;;
22650;SDS011;11492;42.646;23.400;2023-12-29T01:00:35;53.15;;;22.65;;
22650;SDS011;11492;42.646;23.400;2023-12-29T01:03:01;46.88;;;22.60;;
22650;SDS011;11492;42.646;23.400;2023-12-29T01:05:26;48.50;;;21.45;;
22650;SDS011;11492;42.646;23.400;2023-12-29T01:07:53;45.55;;;19.55;;
22650;SDS011;11492;42.646;23.400;2023-12-29T01:10:19;44.15;;;20.23;;
22650;SDS011;11492;42.646;23.400;2023-12-29T01:12:45;48.10;;;20.23;;
22650;SDS011;11492;42.646;23.400;2023-12-29T01:15:11;41.40;;;16.83;;
22650;SDS011;11492;42.646;23.400;2023-12-29T01:17:37;23.42;;;12.32;;
22650;SDS011;11492;42.646;23.400;2023-12-29T01:20:03;26.98;;;14.48;;
22650;SDS011;11492;42.646;23.400;2023-12-29T01:22:29;37.22;;;16.15;;
22650;SDS011;11492;42.646;23.400;2023-12-29T01:24:55;32.60;;;14.25;;
22650;SDS011;11492;42.646;23.400;2023-12-29T01:27:24;24.50;;;12.20;;
22650;SDS011;11492;42.646;23.400;2023-12-29T01:29:50;25.83;;;12.70;;
22650;SDS011;11492;42.646;23.400;2023-12-29T01:32:15;27.27;;;13.00;;
22650;SDS011;11492;42.646;23.400;2023-12-29T01:34:41;31.00;;;14.20;;
22650;SDS011;11492;42.646;23.400;2023-12-29T01:37:07;37.88;;;15.88;;
22650;SDS011;11492;42.646;23.400;2023-12-29T01:39:33;35.05;;;14.82;;
22650;SDS011;11492;42.646;23.400;2023-12-29T01:42:00;33.65;;;16.30;;
22650;SDS011;11492;42.646;23.400;2023-12-29T01:44:25;31.60;;;16.48;;
22650;SDS011;11492;42.646;23.400;2023-12-29T01:46:53;26.63;;;12.55;;
22650;SDS011;11492;42.646;23.400;2023-12-29T01:49:21;21.17;;;10.15;;
22650;SDS011;11492;42.646;23.400;2023-12-29T01:51:57;21.88;;;9.90;;
22650;SDS011;11492;42.646;23.400;2023-12-29T01:54:31;23.40;;;8.98;;
22650;SDS011;11492;42.646;23.400;2023-12-29T01:57:01;26.58;;;10.52;;
22650;SDS011;11492;42.646;23.400;2023-12-29T01:59:28;27.15;;;13.02;;
22650;SDS011;11492;42.646;23.400;2023-12-29T02:01:54;32.20;;;14.98;;
22650;SDS011;11492;42.646;23.400;2023-12-29T02:04:23;33.97;;;16.17;;
22650;SDS011;11492;42.646;23.400;2023-12-29T02:06:50;32.47;;;14.75;;
22650;SDS011;11492;42.646;23.400;2023-12-29T02:09:16;32.95;;;14.10;;
22650;SDS011;11492;42.646;23.400;2023-12-29T02:11:44;30.65;;;14.52;;
22650;SDS011;11492;42.646;23.400;2023-12-29T02:14:10;40.00;;;15.18;;
22650;SDS011;11492;42.646;23.400;2023-12-29T02:24:37;33.65;;;14.38;;
22650;SDS011;11492;42.646;23.400;2023-12-29T02:33:01;30.73;;;14.77;;
22650;SDS011;11492;42.646;23.400;2023-12-29T02:35:38;29.80;;;14.73;;
22650;SDS011;11492;42.646;23.400;2023-12-29T02:38:06;31.77;;;14.98;;
22650;SDS011;11492;42.646;23.400;2023-12-29T02:40:32;32.00;;;14.38;;
22650;SDS011;11492;42.646;23.400;2023-12-29T02:42:58;24.88;;;12.27;;
22650;SDS011;11492;42.646;23.400;2023-12-29T02:45:24;26.35;;;12.25;;
22650;SDS011;11492;42.646;23.400;2023-12-29T02:47:50;22.05;;;11.82;;
22650;SDS011;11492;42.646;23.400;2023-12-29T02:50:15;31.80;;;12.82;;
22650;SDS011;11492;42.646;23.400;2023-12-29T02:52:41;28.35;;;14.05;;
22650;SDS011;11492;42.646;23.400;2023-12-29T02:55:07;35.80;;;15.13;;
22650;SDS011;11492;42.646;23.400;2023-12-29T02:57:33;27.73;;;14.13;;
22650;SDS011;11492;42.646;23.400;2023-12-29T02:59:59;36.42;;;17.10;;
22650;SDS011;11492;42.646;23.400;2023-12-29T03:02:24;42.60;;;19.10;;
22650;SDS011;11492;42.646;23.400;2023-12-29T03:04:50;54.00;;;22.15;;
22650;SDS011;11492;42.646;23.400;2023-12-29T03:07:16;65.93;;;29.02;;
22650;SDS011;11492;42.646;23.400;2023-12-29T03:09:42;57.67;;;27.42;;
22650;SDS011;11492;42.646;23.400;2023-12-29T03:12:08;73.78;;;31.48;;
22650;SDS011;11492;42.646;23.400;2023-12-29T03:14:34;74.55;;;32.63;;
22650;SDS011;11492;42.646;23.400;2023-12-29T03:17:00;70.18;;;32.65;;
22650;SDS011;11492;42.646;23.400;2023-12-29T03:19:26;76.38;;;34.83;;
22650;SDS011;11492;42.646;23.400;2023-12-29T03:21:52;90.32;;;38.75;;
22650;SDS011;11492;42.646;23.400;2023-12-29T03:24:19;84.07;;;37.80;;
22650;SDS011;11492;42.646;23.400;2023-12-29T03:26:45;75.63;;;36.00;;
22650;SDS011;11492;42.646;23.400;2023-12-29T03:29:11;72.90;;;35.05;;
22650;SDS011;11492;42.646;23.400;2023-12-29T03:31:37;88.72;;;36.35;;
22650;SDS011;11492;42.646;23.400;2023-12-29T03:34:04;74.78;;;34.20;;
22650;SDS011;11492;42.646;23.400;2023-12-29T03:36:31;69.32;;;32.10;;
22650;SDS011;11492;42.646;23.400;2023-12-29T03:38:57;68.50;;;32.05;;
22650;SDS011;11492;42.646;23.400;2023-12-29T03:41:23;67.07;;;30.67;;
22650;SDS011;11492;42.646;23.400;2023-12-29T03:43:48;64.47;;;29.25;;
22650;SDS011;11492;42.646;23.400;2023-12-29T03:46:17;68.95;;;29.55;;
22650;SDS011;11492;42.646;23.400;2023-12-29T03:48:44;58.72;;;26.73;;
22650;SDS011;11492;42.646;23.400;2023-12-29T03:51:10;57.30;;;27.05;;
22650;SDS011;11492;42.646;23.400;2023-12-29T03:53:36;63.55;;;29.08;;
22650;SDS011;11492;42.646;23.400;2023-12-29T03:56:06;57.28;;;27.70;;
22650;SDS011;11492;42.646;23.400;2023-12-29T03:58:33;62.00;;;28.60;;
22650;SDS011;11492;42.646;23.400;2023-12-29T04:01:00;57.30;;;28.15;;
22650;SDS011;11492;42.646;23.400;2023-12-29T04:03:26;56.67;;;25.73;;
22650;SDS011;11492;42.646;23.400;2023-12-29T04:05:51;67.00;;;26.25;;
22650;SDS011;11492;42.646;23.400;2023-12-29T04:08:17;57.75;;;26.73;;
22650;SDS011;11492;42.646;23.400;2023-12-29T04:10:43;52.75;;;25.50;;
22650;SDS011;11492;42.646;23.400;2023-12-29T04:13:09;55.03;;;25.85;;
22650;SDS011;11492;42.646;23.400;2023-12-29T04:15:34;58.55;;;28.42;;
22650;SDS011;11492;42.646;23.400;2023-12-29T04:18:00;59.90;;;27.33;;
22650;SDS011;11492;42.646;23.400;2023-12-29T04:20:26;55.67;;;25.85;;
22650;SDS011;11492;42.646;23.400;2023-12-29T04:22:52;52.90;;;26.52;;
22650;SDS011;11492;42.646;23.400;2023-12-29T04:25:18;56.38;;;25.48;;
22650;SDS011;11492;42.646;23.400;2023-12-29T04:27:44;49.05;;;22.48;;
22650;SDS011;11492;42.646;23.400;2023-12-29T04:30:10;44.88;;;21.88;;
22650;SDS011;11492;42.646;23.400;2023-12-29T04:32:35;47.67;;;21.63;;
22650;SDS011;11492;42.646;23.400;2023-12-29T04:35:02;50.55;;;23.42;;
22650;SDS011;11492;42.646;23.400;2023-12-29T04:37:27;56.92;;;24.23;;
22650;SDS011;11492;42.646;23.400;2023-12-29T04:39:53;53.30;;;24.80;;
22650;SDS011;11492;42.646;23.400;2023-12-29T04:42:18;55.33;;;24.80;;
22650;SDS011;11492;42.646;23.400;2023-12-29T04:44:44;48.78;;;24.98;;
22650;SDS011;11492;42.646;23.400;2023-12-29T04:47:10;47.22;;;23.95;;
22650;SDS011;11492;42.646;23.400;2023-12-29T04:49:37;46.85;;;25.08;;
22650;SDS011;11492;42.646;23.400;2023-12-29T04:52:02;47.00;;;25.38;;
22650;SDS011;11492;42.646;23.400;2023-12-29T04:54:28;59.78;;;25.10;;
22650;SDS011;11492;42.646;23.400;2023-12-29T04:56:54;50.20;;;24.23;;
22650;SDS011;11492;42.646;23.400;2023-12-29T04:59:19;50.20;;;24.48;;
22650;SDS011;11492;42.646;23.400;2023-12-29T05:01:45;60.70;;;25.50;;
22650;SDS011;11492;42.646;23.400;2023-12-29T05:04:10;65.00;;;30.05;;
22650;SDS011;11492;42.646;23.400;2023-12-29T05:06:36;148.82;;;64.20;;
22650;SDS011;11492;42.646;23.400;2023-12-29T05:09:01;77.00;;;37.03;;
22650;SDS011;11492;42.646;23.400;2023-12-29T05:11:28;265.45;;;125.90;;
22650;SDS011;11492;42.646;23.400;2023-12-29T05:13:53;98.95;;;46.80;;
22650;SDS011;11492;42.646;23.400;2023-12-29T05:16:19;95.53;;;46.78;;
22650;SDS011;11492;42.646;23.400;2023-12-29T05:18:45;99.05;;;49.75;;
22650;SDS011;11492;42.646;23.400;2023-12-29T05:21:17;101.15;;;49.17;;
22650;SDS011;11492;42.646;23.400;2023-12-29T05:23:44;105.18;;;50.05;;
22650;SDS011;11492;42.646;23.400;2023-12-29T05:26:10;103.38;;;50.08;;
22650;SDS011;11492;42.646;23.400;2023-12-29T05:28:36;97.32;;;45.10;;
22650;SDS011;11492;42.646;23.400;2023-12-29T05:31:02;92.30;;;46.35;;
22650;SDS011;11492;42.646;23.400;2023-12-29T05:33:31;68.30;;;33.25;;
22650;SDS011;11492;42.646;23.400;2023-12-29T05:35:58;76.15;;;39.05;;
22650;SDS011;11492;42.646;23.400;2023-12-29T05:38:23;79.65;;;37.20;;
22650;SDS011;11492;42.646;23.400;2023-12-29T05:40:50;71.55;;;36.00;;
22650;SDS011;11492;42.646;23.400;2023-12-29T05:43:16;80.10;;;38.60;;
22650;SDS011;11492;42.646;23.400;2023-12-29T05:45:43;87.90;;;41.90;;
22650;SDS011;11492;42.646;23.400;2023-12-29T05:48:09;89.60;;;44.15;;
22650;SDS011;11492;42.646;23.400;2023-12-29T05:50:35;91.78;;;44.35;;
22650;SDS011;11492;42.646;23.400;2023-12-29T05:53:01;96.50;;;47.70;;
22650;SDS011;11492;42.646;23.400;2023-12-29T05:55:27;96.93;;;48.25;;
22650;SDS011;11492;42.646;23.400;2023-12-29T05:57:53;102.22;;;50.92;;
22650;SDS011;11492;42.646;23.400;2023-12-29T06:00:19;114.28;;;51.83;;
22650;SDS011;11492;42.646;23.400;2023-12-29T06:02:44;110.10;;;52.83;;
22650;SDS011;11492;42.646;23.400;2023-12-29T06:05:10;116.82;;;53.38;;
22650;SDS011;11492;42.646;23.400;2023-12-29T06:07:37;126.40;;;53.47;;
22650;SDS011;11492;42.646;23.400;2023-12-29T06:10:04;115.55;;;51.15;;
22650;SDS011;11492;42.646;23.400;2023-12-29T06:12:30;106.53;;;51.42;;
22650;SDS011;11492;42.646;23.400;2023-12-29T06:14:56;116.07;;;49.65;;
22650;SDS011;11492;42.646;23.400;2023-12-29T06:17:22;98.72;;;46.45;;
22650;SDS011;11492;42.646;23.400;2023-12-29T06:19:48;102.82;;;46.72;;
22650;SDS011;11492;42.646;23.400;2023-12-29T06:22:14;84.95;;;42.72;;
22650;SDS011;11492;42.646;23.400;2023-12-29T06:24:42;93.25;;;43.63;;
22650;SDS011;11492;42.646;23.400;2023-12-29T06:27:08;91.65;;;43.25;;
22650;SDS011;11492;42.646;23.400;2023-12-29T06:29:35;93.32;;;43.47;;
22650;SDS011;11492;42.646;23.400;2023-12-29T06:32:01;86.68;;;41.60;;
22650;SDS011;11492;42.646;23.400;2023-12-29T06:34:28;84.57;;;41.13;;
22650;SDS011;11492;42.646;23.400;2023-12-29T06:36:53;92.90;;;41.83;;
22650;SDS011;11492;42.646;23.400;2023-12-29T06:39:19;92.03;;;43.47;;
22650;SDS011;11492;42.646;23.400;2023-12-29T06:41:45;100.57;;;44.00;;
22650;SDS011;11492;42.646;23.400;2023-12-29T06:44:11;94.47;;;43.30;;
22650;SDS011;11492;42.646;23.400;2023-12-29T06:46:37;96.13;;;44.05;;
22650;SDS011;11492;42.646;23.400;2023-12-29T06:49:03;109.28;;;44.92;;
22650;SDS011;11492;42.646;23.400;2023-12-29T06:51:29;96.03;;;46.00;;
22650;SDS011;11492;42.646;23.400;2023-12-29T06:53:56;104.90;;;45.10;;
22650;SDS011;11492;42.646;23.400;2023-12-29T06:56:23;99.05;;;44.13;;
22650;SDS011;11492;42.646;23.400;2023-12-29T06:58:49;90.03;;;45.38;;
22650;SDS011;11492;42.646;23.400;2023-12-29T07:01:15;91.85;;;44.67;;
22650;SDS011;11492;42.646;23.400;2023-12-29T07:03:41;92.32;;;41.80;;
22650;SDS011;11492;42.646;23.400;2023-12-29T07:06:07;95.97;;;44.47;;
22650;SDS011;11492;42.646;23.400;2023-12-29T07:08:34;92.35;;;41.95;;
22650;SDS011;11492;42.646;23.400;2023-12-29T07:11:00;82.15;;;40.95;;
22650;SDS011;11492;42.646;23.400;2023-12-29T07:13:25;88.07;;;42.17;;
22650;SDS011;11492;42.646;23.400;2023-12-29T07:15:52;95.93;;;44.05;;
22650;SDS011;11492;42.646;23.400;2023-12-29T07:18:18;90.93;;;44.08;;
22650;SDS011;11492;42.646;23.400;2023-12-29T07:20:43;96.35;;;44.40;;
22650;SDS011;11492;42.646;23.400;2023-12-29T07:23:09;97.28;;;44.75;;
22650;SDS011;11492;42.646;23.400;2023-12-29T07:25:35;101.82;;;43.90;;
22650;SDS011;11492;42.646;23.400;2023-12-29T07:28:01;84.75;;;43.50;;
22650;SDS011;11492;42.646;23.400;2023-12-29T07:30:28;96.20;;;42.20;;
22650;SDS011;11492;42.646;23.400;2023-12-29T07:32:54;87.80;;;45.88;;
22650;SDS011;11492;42.646;23.400;2023-12-29T07:35:20;90.85;;;45.08;;
22650;SDS011;11492;42.646;23.400;2023-12-29T07:37:46;94.72;;;44.75;;
22650;SDS011;11492;42.646;23.400;2023-12-29T07:40:12;88.03;;;43.10;;
22650;SDS011;11492;42.646;23.400;2023-12-29T07:42:39;90.55;;;43.15;;
22650;SDS011;11492;42.646;23.400;2023-12-29T07:45:06;100.80;;;46.45;;
22650;SDS011;11492;42.646;23.400;2023-12-29T07:47:33;90.72;;;44.55;;
22650;SDS011;11492;42.646;23.400;2023-12-29T07:49:59;87.90;;;42.13;;
22650;SDS011;11492;42.646;23.400;2023-12-29T07:52:25;99.22;;;44.22;;
22650;SDS011;11492;42.646;23.400;2023-12-29T07:54:50;86.05;;;42.72;;
22650;SDS011;11492;42.646;23.400;2023-12-29T07:57:16;94.60;;;42.10;;
22650;SDS011;11492;42.646;23.400;2023-12-29T07:59:42;95.60;;;46.22;;
22650;SDS011;11492;42.646;23.400;2023-12-29T08:02:08;108.93;;;50.88;;
22650;SDS011;11492;42.646;23.400;2023-12-29T08:04:34;105.82;;;48.88;;
22650;SDS011;11492;42.646;23.400;2023-12-29T08:07:01;108.63;;;49.53;;
22650;SDS011;11492;42.646;23.400;2023-12-29T08:09:27;100.38;;;46.50;;
22650;SDS011;11492;42.646;23.400;2023-12-29T08:11:53;94.57;;;46.47;;
22650;SDS011;11492;42.646;23.400;2023-12-29T08:14:18;91.70;;;43.92;;
22650;SDS011;11492;42.646;23.400;2023-12-29T08:16:44;81.10;;;41.42;;
22650;SDS011;11492;42.646;23.400;2023-12-29T08:19:10;93.65;;;40.05;;
22650;SDS011;11492;42.646;23.400;2023-12-29T08:21:36;87.05;;;40.42;;
22650;SDS011;11492;42.646;23.400;2023-12-29T08:24:02;76.50;;;37.20;;
22650;SDS011;11492;42.646;23.400;2023-12-29T08:26:28;77.00;;;35.53;;
22650;SDS011;11492;42.646;23.400;2023-12-29T08:28:54;76.22;;;35.22;;
22650;SDS011;11492;42.646;23.400;2023-12-29T08:31:20;73.18;;;34.63;;
22650;SDS011;11492;42.646;23.400;2023-12-29T08:33:48;78.80;;;36.33;;
22650;SDS011;11492;42.646;23.400;2023-12-29T08:36:17;71.75;;;35.38;;
22650;SDS011;11492;42.646;23.400;2023-12-29T08:38:43;71.93;;;31.83;;
22650;SDS011;11492;42.646;23.400;2023-12-29T08:41:09;70.47;;;32.55;;
22650;SDS011;11492;42.646;23.400;2023-12-29T08:43:38;61.00;;;32.25;;
22650;SDS011;11492;42.646;23.400;2023-12-29T08:46:04;63.88;;;32.85;;
22650;SDS011;11492;42.646;23.400;2023-12-29T08:48:30;68.78;;;31.70;;
22650;SDS011;11492;42.646;23.400;2023-12-29T08:50:56;56.10;;;32.38;;
22650;SDS011;11492;42.646;23.400;2023-12-29T08:53:21;62.70;;;32.95;;
22650;SDS011;11492;42.646;23.400;2023-12-29T08:55:47;68.93;;;33.13;;
22650;SDS011;11492;42.646;23.400;2023-12-29T08:58:13;72.20;;;35.50;;
22650;SDS011;11492;42.646;23.400;2023-12-29T09:00:39;70.60;;;35.60;;
22650;SDS011;11492;42.646;23.400;2023-12-29T09:03:05;81.43;;;37.63;;
22650;SDS011;11492;42.646;23.400;2023-12-29T09:05:31;79.05;;;37.33;;
22650;SDS011;11492;42.646;23.400;2023-12-29T09:07:57;78.25;;;37.88;;
22650;SDS011;11492;42.646;23.400;2023-12-29T09:10:22;83.97;;;41.67;;
22650;SDS011;11492;42.646;23.400;2023-12-29T09:12:49;108.90;;;52.25;;
22650;SDS011;11492;42.646;23.400;2023-12-29T09:15:15;103.38;;;56.60;;
22650;SDS011;11492;42.646;23.400;2023-12-29T09:17:41;97.10;;;52.00;;
22650;SDS011;11492;42.646;23.400;2023-12-29T09:20:07;103.05;;;48.45;;
22650;SDS011;11492;42.646;23.400;2023-12-29T09:22:34;98.65;;;46.50;;
22650;SDS011;11492;42.646;23.400;2023-12-29T09:25:00;71.53;;;40.15;;
22650;SDS011;11492;42.646;23.400;2023-12-29T09:27:26;80.88;;;40.63;;
22650;SDS011;11492;42.646;23.400;2023-12-29T09:29:52;77.07;;;39.40;;
22650;SDS011;11492;42.646;23.400;2023-12-29T09:32:18;72.68;;;37.65;;
22650;SDS011;11492;42.646;23.400;2023-12-29T09:34:44;70.63;;;36.35;;
22650;SDS011;11492;42.646;23.400;2023-12-29T09:37:10;71.95;;;34.42;;
22650;SDS011;11492;42.646;23.400;2023-12-29T09:39:35;59.53;;;32.50;;
22650;SDS011;11492;42.646;23.400;2023-12-29T09:42:01;57.47;;;31.20;;
22650;SDS011;11492;42.646;23.400;2023-12-29T09:44:30;62.00;;;32.70;;
22650;SDS011;11492;42.646;23.400;2023-12-29T09:47:03;61.60;;;33.03;;
22650;SDS011;11492;42.646;23.400;2023-12-29T09:49:37;72.03;;;32.63;;
22650;SDS011;11492;42.646;23.400;2023-12-29T09:52:05;55.63;;;29.65;;
22650;SDS011;11492;42.646;23.400;2023-12-29T09:54:32;53.85;;;27.98;;
22650;SDS011;11492;42.646;23.400;2023-12-29T09:57:00;51.42;;;27.63;;
22650;SDS011;11492;42.646;23.400;2023-12-29T09:59:27;49.55;;;27.85;;
22650;SDS011;11492;42.646;23.400;2023-12-29T10:01:55;45.22;;;25.73;;
22650;SDS011;11492;42.646;23.400;2023-12-29T10:04:21;49.55;;;26.20;;
22650;SDS011;11492;42.646;23.400;2023-12-29T10:06:47;57.00;;;26.08;;
22650;SDS011;11492;42.646;23.400;2023-12-29T10:09:15;49.63;;;25.13;;
22650;SDS011;11492;42.646;23.400;2023-12-29T10:11:44;49.30;;;24.73;;
22650;SDS011;11492;42.646;23.400;2023-12-29T10:14:30;39.28;;;24.77;;
22650;SDS011;11492;42.646;23.400;2023-12-29T10:17:09;46.92;;;24.33;;
22650;SDS011;11492;42.646;23.400;2023-12-29T10:19:46;46.92;;;24.17;;
22650;SDS011;11492;42.646;23.400;2023-12-29T10:22:30;41.90;;;24.00;;
22650;SDS011;11492;42.646;23.400;2023-12-29T10:25:10;48.10;;;24.38;;
22650;SDS011;11492;42.646;23.400;2023-12-29T10:27:37;43.22;;;25.70;;
22650;SDS011;11492;42.646;23.400;2023-12-29T10:30:03;43.45;;;25.65;;
22650;SDS011;11492;42.646;23.400;2023-12-29T10:32:30;42.58;;;24.33;;
22650;SDS011;11492;42.646;23.400;2023-12-29T10:35:08;40.83;;;24.98;;
22650;SDS011;11492;42.646;23.400;2023-12-29T10:37:37;42.28;;;24.83;;
22650;SDS011;11492;42.646;23.400;2023-12-29T10:40:04;41.42;;;23.45;;
22650;SDS011;11492;42.646;23.400;2023-12-29T10:42:31;38.70;;;21.52;;
22650;SDS011;11492;42.646;23.400;2023-12-29T10:45:06;45.63;;;23.90;;
22650;SDS011;11492;42.646;23.400;2023-12-29T10:47:34;41.55;;;23.02;;
22650;SDS011;11492;42.646;23.400;2023-12-29T10:50:04;42.35;;;23.40;;
22650;SDS011;11492;42.646;23.400;2023-12-29T10:52:31;43.00;;;24.33;;
22650;SDS011;11492;42.646;23.400;2023-12-29T10:55:07;48.00;;;24.58;;
22650;SDS011;11492;42.646;23.400;2023-12-29T10:57:39;45.38;;;23.88;;
22650;SDS011;11492;42.646;23.400;2023-12-29T11:00:05;42.22;;;23.90;;
22650;SDS011;11492;42.646;23.400;2023-12-29T11:02:37;39.58;;;23.60;;
22650;SDS011;11492;42.646;23.400;2023-12-29T11:05:04;44.28;;;23.95;;
22650;SDS011;11492;42.646;23.400;2023-12-29T11:07:39;50.92;;;23.55;;
22650;SDS011;11492;42.646;23.400;2023-12-29T11:10:07;48.58;;;23.20;;
22650;SDS011;11492;42.646;23.400;2023-12-29T11:12:34;41.05;;;21.77;;
22650;SDS011;11492;42.646;23.400;2023-12-29T11:15:02;43.17;;;21.80;;
22650;SDS011;11492;42.646;23.400;2023-12-29T11:17:33;47.20;;;22.05;;
22650;SDS011;11492;42.646;23.400;2023-12-29T11:20:00;39.65;;;21.55;;
22650;SDS011;11492;42.646;23.400;2023-12-29T11:22:28;44.42;;;21.83;;
22650;SDS011;11492;42.646;23.400;2023-12-29T11:24:55;45.50;;;22.05;;
22650;SDS011;11492;42.646;23.400;2023-12-29T11:27:28;42.78;;;22.42;;
22650;SDS011;11492;42.646;23.400;2023-12-29T11:29:58;47.20;;;22.48;;
22650;SDS011;11492;42.646;23.400;2023-12-29T11:32:42;36.25;;;21.92;;
22650;SDS011;11492;42.646;23.400;2023-12-29T11:35:29;44.88;;;21.33;;
22650;SDS011;11492;42.646;23.400;2023-12-29T11:41:21;43.45;;;22.50;;
22650;SDS011;11492;42.646;23.400;2023-12-29T11:44:07;50.10;;;22.02;;
22650;SDS011;11492;42.646;23.400;2023-12-29T11:46:37;44.40;;;22.27;;
22650;SDS011;11492;42.646;23.400;2023-12-29T11:49:09;42.97;;;22.08;;
22650;SDS011;11492;42.646;23.400;2023-12-29T11:51:36;47.13;;;23.25;;
22650;SDS011;11492;42.646;23.400;2023-12-29T11:54:05;42.03;;;23.08;;
22650;SDS011;11492;42.646;23.400;2023-12-29T11:56:36;47.38;;;24.25;;
22650;SDS011;11492;42.646;23.400;2023-12-29T12:01:39;43.80;;;21.90;;
22650;SDS011;11492;42.646;23.400;2023-12-29T12:04:33;38.65;;;20.92;;
22650;SDS011;11492;42.646;23.400;2023-12-29T12:07:16;41.70;;;21.75;;
22650;SDS011;11492;42.646;23.400;2023-12-29T12:10:45;51.38;;;21.50;;
22650;SDS011;11492;42.646;23.400;2023-12-29T12:12:52;35.47;;;20.98;;
22650;SDS011;11492;42.646;23.400;2023-12-29T12:15:39;39.92;;;20.02;;
22650;SDS011;11492;42.646;23.400;2023-12-29T12:18:04;39.90;;;22.17;;
22650;SDS011;11492;42.646;23.400;2023-12-29T12:20:34;56.05;;;22.90;;
22650;SDS011;11492;42.646;23.400;2023-12-29T12:23:01;52.30;;;24.23;;
22650;SDS011;11492;42.646;23.400;2023-12-29T12:25:45;44.08;;;23.23;;
22650;SDS011;11492;42.646;23.400;2023-12-29T12:28:13;46.10;;;24.27;;
22650;SDS011;11492;42.646;23.400;2023-12-29T12:30:39;49.70;;;24.42;;
22650;SDS011;11492;42.646;23.400;2023-12-29T12:33:05;50.90;;;24.85;;
22650;SDS011;11492;42.646;23.400;2023-12-29T12:35:30;54.85;;;26.27;;
22650;SDS011;11492;42.646;23.400;2023-12-29T12:40:36;58.53;;;26.52;;
22650;SDS011;11492;42.646;23.400;2023-12-29T12:43:03;56.53;;;26.65;;
22650;SDS011;11492;42.646;23.400;2023-12-29T12:45:29;53.17;;;26.67;;
22650;SDS011;11492;42.646;23.400;2023-12-29T12:48:01;64.18;;;29.35;;
22650;SDS011;11492;42.646;23.400;2023-12-29T12:50:28;61.67;;;28.52;;
22650;SDS011;11492;42.646;23.400;2023-12-29T12:52:55;55.92;;;27.38;;
22650;SDS011;11492;42.646;23.400;2023-12-29T12:55:23;57.08;;;28.20;;
22650;SDS011;11492;42.646;23.400;2023-12-29T12:57:49;60.28;;;28.35;;
22650;SDS011;11492;42.646;23.400;2023-12-29T13:00:15;55.58;;;27.50;;
22650;SDS011;11492;42.646;23.400;2023-12-29T13:02:43;55.80;;;27.27;;
22650;SDS011;11492;42.646;23.400;2023-12-29T13:05:11;57.42;;;27.75;;
22650;SDS011;11492;42.646;23.400;2023-12-29T13:07:37;55.75;;;27.23;;
22650;SDS011;11492;42.646;23.400;2023-12-29T13:10:03;53.92;;;27.05;;
22650;SDS011;11492;42.646;23.400;2023-12-29T13:12:29;65.00;;;28.52;;
22650;SDS011;11492;42.646;23.400;2023-12-29T13:15:04;56.47;;;27.45;;
22650;SDS011;11492;42.646;23.400;2023-12-29T13:17:33;61.70;;;27.55;;
22650;SDS011;11492;42.646;23.400;2023-12-29T13:19:59;61.83;;;27.75;;
22650;SDS011;11492;42.646;23.400;2023-12-29T13:22:25;66.05;;;28.50;;
22650;SDS011;11492;42.646;23.400;2023-12-29T13:24:54;69.45;;;29.50;;
22650;SDS011;11492;42.646;23.400;2023-12-29T13:27:20;58.20;;;27.20;;
22650;SDS011;11492;42.646;23.400;2023-12-29T13:29:46;66.65;;;28.63;;
22650;SDS011;11492;42.646;23.400;2023-12-29T13:32:20;53.33;;;25.63;;
22650;SDS011;11492;42.646;23.400;2023-12-29T13:35:01;55.80;;;24.88;;
22650;SDS011;11492;42.646;23.400;2023-12-29T13:40:47;44.70;;;23.00;;
22650;SDS011;11492;42.646;23.400;2023-12-29T13:42:55;52.45;;;22.65;;
22650;SDS011;11492;42.646;23.400;2023-12-29T13:45:24;50.90;;;22.80;;
22650;SDS011;11492;42.646;23.400;2023-12-29T13:47:51;48.38;;;22.40;;
22650;SDS011;11492;42.646;23.400;2023-12-29T13:50:19;45.28;;;22.75;;
22650;SDS011;11492;42.646;23.400;2023-12-29T13:52:45;48.53;;;21.73;;
22650;SDS011;11492;42.646;23.400;2023-12-29T13:55:10;44.28;;;21.65;;
22650;SDS011;11492;42.646;23.400;2023-12-29T13:57:36;41.45;;;21.60;;
22650;SDS011;11492;42.646;23.400;2023-12-29T14:10:29;52.42;;;22.10;;
22650;SDS011;11492;42.646;23.400;2023-12-29T14:13:09;57.25;;;23.33;;
22650;SDS011;11492;42.646;23.400;2023-12-29T14:15:46;46.30;;;22.95;;
22650;SDS011;11492;42.646;23.400;2023-12-29T14:21:03;30.90;;;14.23;;
22650;SDS011;11492;42.646;23.400;2023-12-29T14:26:39;48.50;;;16.50;;
22650;SDS011;11492;42.646;23.400;2023-12-29T14:29:07;37.08;;;13.07;;
22650;SDS011;11492;42.646;23.400;2023-12-29T14:31:36;55.55;;;13.65;;
22650;SDS011;11492;42.646;23.400;2023-12-29T14:34:03;38.63;;;13.60;;
22650;SDS011;11492;42.646;23.400;2023-12-29T14:36:33;41.63;;;13.07;;
22650;SDS011;11492;42.646;23.400;2023-12-29T14:39:01;45.90;;;13.70;;
22650;SDS011;11492;42.646;23.400;2023-12-29T14:41:28;52.25;;;14.07;;
22650;SDS011;11492;42.646;23.400;2023-12-29T14:43:54;41.80;;;13.27;;
22650;SDS011;11492;42.646;23.400;2023-12-29T14:46:20;44.75;;;12.93;;
22650;SDS011;11492;42.646;23.400;2023-12-29T14:48:46;48.53;;;13.10;;
22650;SDS011;11492;42.646;23.400;2023-12-29T14:51:13;42.90;;;12.98;;
22650;SDS011;11492;42.646;23.400;2023-12-29T14:53:39;58.40;;;13.93;;